createdAt,value
2022-12-04T00:02:08.267Z,18.11
2022-12-04T00:04:34.826Z,17.96
2022-12-04T00:07:01.908Z,17.79
2022-12-04T00:09:28.450Z,18.32
2022-12-04T00:11:54.942Z,18.61
2022-12-04T00:14:21.445Z,18.05
2022-12-04T00:16:48.019Z,18.63
2022-12-04T00:19:14.540Z,19.00
2022-12-04T00:21:41.018Z,18.48
2022-12-04T00:24:07.657Z,18.72
2022-12-04T00:26:34.200Z,19.09
2022-12-04T00:29:00.980Z,19.00
2022-12-04T00:31:30.109Z,19.06
2022-12-04T00:33:58.519Z,19.46
2022-12-04T00:36:27.118Z,18.80
2022-12-04T00:38:54.712Z,19.27
2022-12-04T00:41:24.369Z,19.22
2022-12-04T00:43:51.168Z,19.25
2022-12-04T00:46:18.107Z,19.18
2022-12-04T00:48:45.692Z,19.37
2022-12-04T00:51:15.861Z,19.83
2022-12-04T00:53:42.541Z,19.75
2022-12-04T00:56:12.900Z,19.40
2022-12-04T00:58:39.775Z,19.79
2022-12-04T01:01:15.539Z,19.74
2022-12-04T01:03:43.436Z,18.97
2022-12-04T01:06:23.102Z,19.39
2022-12-04T01:08:51.673Z,19.34
2022-12-04T01:11:20.360Z,19.15
2022-12-04T01:13:47.412Z,19.25
2022-12-04T01:16:30.213Z,19.38
2022-12-04T01:18:56.916Z,19.29
2022-12-04T01:21:23.524Z,19.13
2022-12-04T01:23:50.017Z,19.75
2022-12-04T01:26:16.573Z,19.21
2022-12-04T01:28:43.175Z,19.53
2022-12-04T01:31:16.679Z,18.82
2022-12-04T01:33:44.471Z,18.76
2022-12-04T01:36:13.941Z,18.73
2022-12-04T01:38:40.955Z,18.99
2022-12-04T01:41:09.048Z,18.54
2022-12-04T01:43:37.559Z,18.97
2022-12-04T01:46:05.231Z,19.04
2022-12-04T01:48:35.299Z,18.87
2022-12-04T01:51:01.714Z,18.61
2022-12-04T01:53:31.093Z,18.51
2022-12-04T01:55:57.818Z,18.25
2022-12-04T01:58:30.973Z,18.36
2022-12-04T02:01:07.883Z,18.57
2022-12-04T02:03:35.783Z,17.95
2022-12-04T02:06:02.297Z,18.33
2022-12-04T02:08:30.372Z,17.55
2022-12-04T02:11:13.053Z,18.03
2022-12-04T02:14:21.387Z,17.58
2022-12-04T02:17:06.121Z,18.22
2022-12-04T02:19:56.753Z,17.74
2022-12-04T02:22:35.329Z,17.58
2022-12-04T02:25:24.252Z,17.63
2022-12-04T02:28:09.323Z,18.23
2022-12-04T02:30:41.116Z,17.71
2022-12-04T02:33:20.885Z,17.64
2022-12-04T02:36:01.481Z,17.23
2022-12-04T02:39:02.548Z,16.68
2022-12-04T02:41:45.097Z,17.48
2022-12-04T02:44:22.020Z,17.67
2022-12-04T02:46:55.442Z,17.09
2022-12-04T02:49:29.053Z,17.06
2022-12-04T02:51:59.465Z,17.00
2022-12-04T02:54:38.315Z,17.32
2022-12-04T02:57:11.377Z,17.48
2022-12-04T02:59:44.825Z,16.94
2022-12-04T03:02:23.303Z,16.89
2022-12-04T03:04:55.051Z,16.89
2022-12-04T03:07:33.911Z,17.30
2022-12-04T03:10:10.793Z,16.68
2022-12-04T03:12:47.328Z,16.73
2022-12-04T03:15:21.177Z,17.10
2022-12-04T03:17:58.591Z,17.37
2022-12-04T03:20:25.672Z,17.56
2022-12-04T03:22:59.718Z,17.62
2022-12-04T03:25:35.296Z,17.77
2022-12-04T03:28:10.723Z,18.47
2022-12-04T03:30:49.007Z,18.09
2022-12-04T03:33:21.574Z,18.17
2022-12-04T03:36:05.177Z,18.43
2022-12-04T03:38:52.637Z,18.67
2022-12-04T03:41:31.232Z,18.56
2022-12-04T03:44:08.659Z,18.71
2022-12-04T03:46:47.769Z,17.67
2022-12-04T03:49:19.905Z,18.48
2022-12-04T03:52:03.735Z,18.90
2022-12-04T03:54:37.945Z,19.71
2022-12-04T03:57:13.075Z,19.21
2022-12-04T03:59:52.391Z,18.95
2022-12-04T04:02:28.283Z,19.68
2022-12-04T04:04:59.811Z,20.30
2022-12-04T04:07:38.522Z,20.23
2022-12-04T04:10:14.035Z,19.74
2022-12-04T04:13:04.247Z,20.23
2022-12-04T04:15:55.941Z,20.53
2022-12-04T04:18:22.857Z,20.35
2022-12-04T04:20:55.514Z,20.48
2022-12-04T04:23:25.188Z,20.57
2022-12-04T04:25:53.469Z,20.42
2022-12-04T04:28:40.622Z,20.40
2022-12-04T04:31:19.037Z,19.96
2022-12-04T04:34:02.621Z,20.04
2022-12-04T04:36:40.956Z,19.94
2022-12-04T04:39:36.509Z,20.01
2022-12-04T04:42:16.461Z,20.62
2022-12-04T04:45:06.149Z,20.70
2022-12-04T04:47:38.872Z,20.42
2022-12-04T04:50:10.257Z,20.46
2022-12-04T04:52:41.290Z,20.31
2022-12-04T04:55:09.786Z,20.91
2022-12-04T04:57:37.051Z,20.69
2022-12-04T05:00:08.578Z,21.14
2022-12-04T05:02:35.570Z,21.30
2022-12-04T05:05:02.071Z,21.48
2022-12-04T05:07:28.574Z,20.53
2022-12-04T05:09:55.390Z,20.62
2022-12-04T05:12:22.269Z,20.76
2022-12-04T05:14:49.051Z,21.29
2022-12-04T05:17:15.838Z,20.94
2022-12-04T05:19:42.438Z,20.74
2022-12-04T05:22:08.929Z,20.59
2022-12-04T05:24:35.400Z,20.10
2022-12-04T05:27:01.905Z,20.90
2022-12-04T05:29:31.645Z,19.81
2022-12-04T05:32:02.593Z,20.70
2022-12-04T05:34:29.081Z,20.78
2022-12-04T05:36:55.549Z,21.36
2022-12-04T05:39:22.064Z,20.96
2022-12-04T05:41:48.509Z,21.53
2022-12-04T05:44:14.992Z,21.33
2022-12-04T05:46:41.512Z,22.21
2022-12-04T05:49:08.020Z,21.37
2022-12-04T05:51:34.531Z,21.48
2022-12-04T05:54:00.990Z,21.55
2022-12-04T05:56:27.602Z,21.68
2022-12-04T05:58:54.077Z,21.46
2022-12-04T06:01:23.327Z,21.25
2022-12-04T06:03:50.204Z,21.25
2022-12-04T06:06:22.072Z,21.60
2022-12-04T06:08:50.878Z,20.93
2022-12-04T06:11:21.964Z,21.46
2022-12-04T06:13:49.333Z,22.02
2022-12-04T06:16:19.091Z,22.28
2022-12-04T06:18:49.837Z,22.40
2022-12-04T06:21:16.377Z,22.34
2022-12-04T06:23:42.972Z,22.36
2022-12-04T06:26:10.389Z,22.33
2022-12-04T06:28:37.829Z,22.45
2022-12-04T06:31:08.233Z,22.30
2022-12-04T06:33:35.109Z,22.22
2022-12-04T06:36:13.445Z,21.91
2022-12-04T06:38:41.214Z,22.74
2022-12-04T06:41:11.242Z,22.23
2022-12-04T06:43:38.462Z,22.58
2022-12-04T06:46:12.430Z,22.34
2022-12-04T06:48:39.024Z,22.49
2022-12-04T06:51:17.741Z,22.48
2022-12-04T06:53:44.857Z,23.10
2022-12-04T06:56:18.056Z,23.34
2022-12-04T06:58:45.878Z,23.33
2022-12-04T07:01:15.675Z,23.20
2022-12-04T07:03:47.828Z,23.23
2022-12-04T07:06:19.292Z,23.51
2022-12-04T07:08:47.964Z,23.38
2022-12-04T07:11:15.745Z,23.80
2022-12-04T07:13:42.576Z,23.36
2022-12-04T07:16:13.484Z,24.00
2022-12-04T07:18:41.094Z,23.37
2022-12-04T07:21:15.804Z,23.88
2022-12-04T07:23:42.322Z,23.48
2022-12-04T07:26:12.371Z,24.07
2022-12-04T07:28:39.883Z,23.64
2022-12-04T07:31:09.234Z,23.45
2022-12-04T07:33:36.519Z,23.87
2022-12-04T07:36:06.408Z,24.45
2022-12-04T07:38:34.380Z,24.34
2022-12-04T07:41:03.707Z,24.06
2022-12-04T07:43:31.260Z,24.00
2022-12-04T07:45:59.215Z,24.25
2022-12-04T07:48:31.760Z,25.31
2022-12-04T07:51:11.165Z,24.29
2022-12-04T07:53:38.288Z,24.62
2022-12-04T07:56:05.939Z,25.19
2022-12-04T07:58:33.037Z,24.39
2022-12-04T08:01:14.714Z,23.85
2022-12-04T08:03:47.691Z,25.14
2022-12-04T08:06:17.593Z,24.70
2022-12-04T08:08:45.171Z,24.85
2022-12-04T08:11:15.095Z,25.08
2022-12-04T08:13:41.659Z,25.15
2022-12-04T08:16:11.050Z,24.52
2022-12-04T08:18:38.404Z,24.72
2022-12-04T08:21:07.865Z,24.91
2022-12-04T08:23:35.009Z,24.62
2022-12-04T08:26:02.718Z,24.81
2022-12-04T08:28:29.620Z,25.27
2022-12-04T08:31:05.530Z,25.45
2022-12-04T08:33:32.854Z,25.67
2022-12-04T08:36:00.000Z,24.75
2022-12-04T08:38:26.701Z,24.78
2022-12-04T08:40:53.199Z,25.87
2022-12-04T08:43:19.741Z,25.78
2022-12-04T08:45:58.373Z,25.09
2022-12-04T08:48:25.789Z,25.57
2022-12-04T08:50:52.419Z,25.10
2022-12-04T08:53:19.993Z,25.67
2022-12-04T08:55:46.607Z,25.42
2022-12-04T08:58:14.052Z,25.30
2022-12-04T09:00:40.565Z,26.21
2022-12-04T09:03:07.125Z,25.39
2022-12-04T09:05:33.708Z,25.90
2022-12-04T09:08:00.347Z,24.51
2022-12-04T09:10:26.964Z,25.19
2022-12-04T09:12:53.524Z,24.59
2022-12-04T09:15:20.044Z,23.95
2022-12-04T09:17:46.556Z,24.23
2022-12-04T09:20:13.175Z,24.34
2022-12-04T09:23:02.164Z,24.48
2022-12-04T09:25:26.132Z,25.08
2022-12-04T09:27:52.628Z,24.46
2022-12-04T09:30:19.184Z,24.55
2022-12-04T09:32:45.678Z,24.64
2022-12-04T09:35:12.167Z,23.14
2022-12-04T09:37:38.685Z,23.74
2022-12-04T09:40:06.628Z,23.94
2022-12-04T09:42:40.733Z,24.16
2022-12-04T09:45:25.066Z,23.96
2022-12-04T09:47:56.509Z,25.20
2022-12-04T09:50:40.651Z,24.19
2022-12-04T09:53:23.291Z,24.63
2022-12-04T09:56:04.789Z,24.19
2022-12-04T09:58:52.437Z,24.37
2022-12-04T10:01:26.948Z,23.90
2022-12-04T10:03:54.982Z,23.10
2022-12-04T10:06:26.258Z,24.04
2022-12-04T10:09:16.545Z,25.05
2022-12-04T10:11:42.952Z,24.83
2022-12-04T10:14:58.121Z,24.59
2022-12-04T10:18:18.423Z,25.48
2022-12-04T10:21:01.877Z,26.00
2022-12-04T10:23:53.989Z,25.73
2022-12-04T10:26:28.384Z,25.23
2022-12-04T10:29:20.166Z,24.03
2022-12-04T10:31:49.542Z,23.64
2022-12-04T10:34:26.328Z,23.72
2022-12-04T10:36:55.570Z,22.71
2022-12-04T10:39:21.981Z,23.22
2022-12-04T10:42:11.594Z,23.34
2022-12-04T10:44:38.774Z,23.53
2022-12-04T10:47:06.775Z,23.38
2022-12-04T10:49:36.585Z,22.32
2022-12-04T10:52:05.012Z,22.30
2022-12-04T10:54:38.487Z,22.27
2022-12-04T10:57:10.958Z,21.66
2022-12-04T10:59:54.139Z,22.35
2022-12-04T11:02:27.472Z,22.62
2022-12-04T11:05:00.925Z,21.89
2022-12-04T11:07:35.694Z,23.43
2022-12-04T11:10:06.955Z,23.85
2022-12-04T11:12:33.857Z,23.58
2022-12-04T11:15:14.511Z,25.01
2022-12-04T11:17:41.142Z,24.47
2022-12-04T11:20:23.509Z,24.14
2022-12-04T11:22:54.626Z,23.88
2022-12-04T11:25:23.425Z,22.63
2022-12-04T11:27:54.584Z,23.36
2022-12-04T11:30:29.240Z,24.15
2022-12-04T11:32:57.499Z,24.49
2022-12-04T11:35:27.957Z,24.85
2022-12-04T11:38:15.985Z,23.30
2022-12-04T11:40:52.160Z,22.97
2022-12-04T11:43:20.571Z,22.72
2022-12-04T11:46:02.517Z,22.38
2022-12-04T11:48:31.289Z,21.72
2022-12-04T11:51:27.724Z,21.94
2022-12-04T11:54:10.234Z,22.57
2022-12-04T11:56:47.988Z,22.71
2022-12-04T11:59:40.604Z,22.92
2022-12-04T12:02:40.885Z,21.86
2022-12-04T12:05:38.002Z,21.35
2022-12-04T12:08:33.553Z,20.92
2022-12-04T12:11:14.668Z,21.40
2022-12-04T12:13:52.877Z,21.36
2022-12-04T12:16:48.390Z,20.59
2022-12-04T12:19:23.651Z,21.07
2022-12-04T12:22:18.825Z,20.46
2022-12-04T12:25:06.356Z,19.76
2022-12-04T12:27:54.806Z,19.37
2022-12-04T12:30:24.081Z,19.55
2022-12-04T12:33:21.037Z,19.83
2022-12-04T12:36:10.042Z,19.82
2022-12-04T12:38:48.363Z,19.35
2022-12-04T12:41:28.905Z,19.72
2022-12-04T12:44:04.696Z,19.69
2022-12-04T12:46:36.490Z,19.79
2022-12-04T12:49:25.377Z,19.82
2022-12-04T12:52:10.831Z,19.62
2022-12-04T12:54:45.043Z,19.88
2022-12-04T12:57:19.854Z,20.75
2022-12-04T12:59:55.969Z,20.91
2022-12-04T13:02:28.764Z,21.90
2022-12-04T13:05:00.993Z,22.29
2022-12-04T13:07:55.459Z,22.52
2022-12-04T13:10:36.661Z,22.88
2022-12-04T13:13:17.215Z,23.21
2022-12-04T13:15:55.419Z,22.36
2022-12-04T13:18:30.518Z,22.66
2022-12-04T13:21:02.674Z,23.29
2022-12-04T13:23:54.006Z,22.27
2022-12-04T13:26:39.124Z,22.43
2022-12-04T13:29:36.502Z,21.45
2022-12-04T13:32:27.415Z,21.75
2022-12-04T13:35:23.405Z,21.23
2022-12-04T13:38:06.721Z,20.21
2022-12-04T13:40:53.455Z,20.56
2022-12-04T13:43:32.405Z,20.74
2022-12-04T13:46:04.796Z,20.57
2022-12-04T13:48:41.917Z,21.40
2022-12-04T13:51:08.338Z,21.31
2022-12-04T13:53:37.716Z,22.05
2022-12-04T13:56:10.289Z,21.75
2022-12-04T13:58:38.881Z,22.66
2022-12-04T14:01:28.226Z,22.52
2022-12-04T14:03:55.286Z,22.70
2022-12-04T14:06:42.441Z,23.06
2022-12-04T14:09:21.214Z,23.13
2022-12-04T14:11:54.678Z,22.43
2022-12-04T14:14:36.109Z,22.58
2022-12-04T14:17:04.550Z,21.85
2022-12-04T14:19:35.654Z,23.73
2022-12-04T14:22:03.171Z,22.63
2022-12-04T14:24:38.279Z,22.03
2022-12-04T14:27:42.165Z,22.14
2022-12-04T14:30:37.446Z,22.57
2022-12-04T14:33:20.089Z,23.34
2022-12-04T14:35:59.428Z,23.65
2022-12-04T14:38:26.058Z,23.52
2022-12-04T14:40:54.996Z,22.92
2022-12-04T14:43:25.560Z,23.78
2022-12-04T14:46:15.771Z,23.49
2022-12-04T14:49:01.520Z,23.28
2022-12-04T14:51:40.683Z,22.82
2022-12-04T14:54:42.642Z,22.08
2022-12-04T14:57:18.066Z,21.78
2022-12-04T14:59:52.277Z,22.18
2022-12-04T15:02:22.538Z,21.56
2022-12-04T15:04:50.824Z,21.10
2022-12-04T15:07:28.111Z,20.98
2022-12-04T15:09:58.261Z,21.59
2022-12-04T15:12:25.904Z,21.33
2022-12-04T15:14:52.404Z,21.35
2022-12-04T15:17:19.114Z,21.64
2022-12-04T15:19:45.719Z,21.63
2022-12-04T15:22:25.795Z,21.69
2022-12-04T15:24:53.615Z,22.70
2022-12-04T15:27:31.760Z,22.34
2022-12-04T15:30:02.858Z,22.36
2022-12-04T15:32:32.019Z,22.18
2022-12-04T15:35:06.201Z,22.75
2022-12-04T15:37:34.452Z,23.22
2022-12-04T15:40:06.233Z,23.57
2022-12-04T15:42:32.954Z,23.19
2022-12-04T15:45:19.621Z,23.05
2022-12-04T15:47:46.029Z,23.86
2022-12-04T15:50:16.953Z,24.65
2022-12-04T15:52:58.631Z,24.18
2022-12-04T15:55:27.851Z,22.07
2022-12-04T15:58:18.112Z,22.67
2022-12-04T16:00:45.132Z,23.29
2022-12-04T16:03:26.507Z,22.72
2022-12-04T16:06:08.023Z,23.43
2022-12-04T16:08:38.600Z,25.89
2022-12-04T16:11:21.975Z,23.75
2022-12-04T16:14:08.266Z,24.43
2022-12-04T16:16:38.191Z,24.65
2022-12-04T16:19:35.801Z,23.72
2022-12-04T16:22:10.111Z,23.54
2022-12-04T16:24:36.631Z,23.41
2022-12-04T16:27:11.787Z,24.91
2022-12-04T16:29:38.253Z,23.87
2022-12-04T16:32:04.979Z,23.96
2022-12-04T16:34:31.712Z,23.08
2022-12-04T16:36:58.869Z,24.18
2022-12-04T16:39:25.309Z,24.29
2022-12-04T16:41:51.809Z,25.74
2022-12-04T16:44:18.293Z,23.72
2022-12-04T16:46:46.912Z,24.18
2022-12-04T16:49:13.758Z,23.62
2022-12-04T16:51:47.540Z,23.67
2022-12-04T16:54:14.111Z,24.73
2022-12-04T16:56:40.834Z,25.77
2022-12-04T16:59:11.738Z,24.93
2022-12-04T17:01:47.140Z,24.71
2022-12-04T17:04:14.473Z,24.62
2022-12-04T17:06:41.080Z,25.01
2022-12-04T17:09:07.673Z,24.26
2022-12-04T17:11:34.968Z,23.84
2022-12-04T17:14:01.495Z,24.48
2022-12-04T17:16:28.116Z,24.21
2022-12-04T17:18:54.864Z,24.41
2022-12-04T17:21:21.626Z,24.49
2022-12-04T17:23:48.413Z,24.53
2022-12-04T17:26:15.118Z,23.79
2022-12-04T17:28:41.976Z,24.72
2022-12-04T17:31:20.190Z,24.38
2022-12-04T17:33:47.509Z,24.36
2022-12-04T17:36:18.922Z,25.13
2022-12-04T17:38:45.938Z,26.08
2022-12-04T17:41:14.339Z,26.28
2022-12-04T17:43:42.825Z,26.43
2022-12-04T17:46:12.069Z,26.27
2022-12-04T17:48:39.661Z,26.34
2022-12-04T17:51:14.774Z,26.81
2022-12-04T17:53:42.238Z,24.44
2022-12-04T17:56:15.389Z,24.46
2022-12-04T17:58:41.843Z,24.90
2022-12-04T18:01:13.655Z,25.08
2022-12-04T18:03:40.867Z,25.02
2022-12-04T18:06:16.996Z,25.99
2022-12-04T18:08:49.745Z,24.45
2022-12-04T18:11:21.122Z,24.90
2022-12-04T18:13:59.486Z,24.62
2022-12-04T18:16:28.006Z,24.11
2022-12-04T18:18:59.997Z,24.86
2022-12-04T18:21:27.739Z,25.17
2022-12-04T18:23:58.010Z,25.61
2022-12-04T18:26:27.533Z,25.40
2022-12-04T18:28:57.048Z,25.79
2022-12-04T18:31:23.711Z,25.68
2022-12-04T18:33:50.270Z,25.53
2022-12-04T18:36:22.966Z,25.91
2022-12-04T18:38:55.065Z,26.47
2022-12-04T18:41:22.464Z,26.15
2022-12-04T18:43:49.844Z,25.57
2022-12-04T18:46:17.917Z,25.97
2022-12-04T18:48:46.295Z,25.66
2022-12-04T18:51:20.830Z,26.54
2022-12-04T18:53:47.876Z,25.95
2022-12-04T18:56:14.677Z,26.21
2022-12-04T18:58:41.688Z,26.21
2022-12-04T19:01:10.044Z,26.11
2022-12-04T19:03:36.909Z,26.96
2022-12-04T19:06:03.745Z,26.97
2022-12-04T19:08:33.762Z,26.79
2022-12-04T19:11:09.964Z,26.82
2022-12-04T19:13:36.480Z,25.83
2022-12-04T19:16:04.766Z,25.48
2022-12-04T19:18:31.296Z,25.30
2022-12-04T19:20:57.818Z,25.96
2022-12-04T19:23:24.302Z,24.67
2022-12-04T19:25:55.868Z,25.34
2022-12-04T19:28:23.133Z,24.68
2022-12-04T19:30:49.936Z,25.31
2022-12-04T19:33:16.394Z,24.70
2022-12-04T19:35:42.947Z,24.37
2022-12-04T19:38:09.827Z,24.21
2022-12-04T19:40:36.305Z,24.22
2022-12-04T19:43:03.340Z,24.83
2022-12-04T19:45:29.893Z,24.50
2022-12-04T19:47:56.457Z,24.44
2022-12-04T19:50:22.942Z,24.74
2022-12-04T19:52:49.391Z,25.28
2022-12-04T19:55:15.913Z,25.25
2022-12-04T19:57:45.314Z,24.82
2022-12-04T20:00:12.184Z,25.24
2022-12-04T20:02:38.731Z,25.68
2022-12-04T20:05:05.478Z,25.47
2022-12-04T20:07:32.026Z,25.96
2022-12-04T20:09:58.663Z,25.92
2022-12-04T20:12:25.278Z,26.96
2022-12-04T20:14:51.807Z,26.25
2022-12-04T20:17:18.259Z,26.40
2022-12-04T20:19:44.743Z,26.09
2022-12-04T20:22:11.219Z,25.14
2022-12-04T20:24:37.759Z,25.80
2022-12-04T20:27:04.232Z,25.72
2022-12-04T20:29:30.681Z,26.57
2022-12-04T20:31:57.138Z,26.25
2022-12-04T20:34:23.630Z,26.60
2022-12-04T20:36:50.272Z,26.08
2022-12-04T20:39:19.224Z,26.18
2022-12-04T20:41:46.186Z,26.54
2022-12-04T20:44:15.752Z,26.26
2022-12-04T20:46:42.496Z,27.20
2022-12-04T20:49:18.803Z,26.79
2022-12-04T20:51:47.046Z,26.71
2022-12-04T20:54:16.896Z,26.13
2022-12-04T20:56:43.907Z,26.56
2022-12-04T20:59:13.289Z,26.48
2022-12-04T21:01:41.111Z,27.58
2022-12-04T21:04:08.083Z,27.19
2022-12-04T21:06:37.637Z,27.40
2022-12-04T21:09:11.631Z,27.93
2022-12-04T21:11:42.208Z,27.76
2022-12-04T21:14:23.866Z,28.28
2022-12-04T21:16:50.633Z,27.88
2022-12-04T21:19:19.805Z,27.91
2022-12-04T21:21:47.026Z,28.17
2022-12-04T21:24:16.300Z,28.60
2022-12-04T21:26:43.190Z,26.12
2022-12-04T21:29:09.692Z,23.66
2022-12-04T21:31:37.355Z,23.01
2022-12-04T21:34:06.985Z,24.03
2022-12-04T21:36:34.111Z,23.81
2022-12-04T21:39:00.585Z,22.36
2022-12-04T21:41:27.318Z,23.12
2022-12-04T21:43:53.824Z,21.24
2022-12-04T21:46:20.366Z,21.01
2022-12-04T21:48:46.871Z,19.67
2022-12-04T21:51:39.884Z,18.22
2022-12-04T21:54:00.343Z,15.99
2022-12-04T21:56:27.044Z,14.29
2022-12-04T21:58:53.687Z,14.87
2022-12-04T22:01:22.869Z,14.36
2022-12-04T22:03:51.352Z,14.22
2022-12-04T22:06:19.354Z,13.22
2022-12-04T22:08:45.946Z,13.08
2022-12-04T22:11:14.377Z,12.63
2022-12-04T22:13:41.319Z,12.08
2022-12-04T22:16:14.631Z,13.28
2022-12-04T22:18:41.642Z,12.65
2022-12-04T22:21:11.131Z,11.94
2022-12-04T22:23:37.585Z,11.48
2022-12-04T22:26:11.932Z,10.21
2022-12-04T22:28:38.808Z,9.93
2022-12-04T22:31:11.040Z,10.02
2022-12-04T22:33:38.313Z,9.60
2022-12-04T22:36:07.585Z,9.20
2022-12-04T22:38:52.406Z,8.86
2022-12-04T22:41:22.960Z,10.50
2022-12-04T22:43:49.576Z,10.87
2022-12-04T22:46:16.158Z,9.13
2022-12-04T22:48:43.999Z,10.24
2022-12-04T22:51:16.767Z,10.24
2022-12-04T22:53:49.208Z,9.91
2022-12-04T22:56:21.964Z,10.23
2022-12-04T22:58:48.663Z,9.81
2022-12-04T23:01:20.325Z,8.89
2022-12-04T23:03:47.569Z,9.14
2022-12-04T23:06:16.016Z,9.42
2022-12-04T23:08:43.672Z,9.68
2022-12-04T23:11:14.126Z,10.19
2022-12-04T23:13:41.253Z,10.36
2022-12-04T23:16:10.455Z,10.52
2022-12-04T23:18:38.123Z,10.39
2022-12-04T23:21:07.733Z,9.77
2022-12-04T23:23:38.455Z,9.85
2022-12-04T23:26:06.765Z,9.68
2022-12-04T23:28:33.955Z,9.96
2022-12-04T23:31:01.624Z,10.14
2022-12-04T23:33:28.401Z,9.71
2022-12-04T23:35:57.593Z,9.56
2022-12-04T23:38:25.956Z,9.96
2022-12-04T23:41:00.914Z,10.59
2022-12-04T23:43:27.429Z,10.34
2022-12-04T23:45:53.885Z,9.69
2022-12-04T23:48:20.480Z,9.92
2022-12-04T23:50:46.918Z,9.18
2022-12-04T23:53:13.416Z,8.95
2022-12-04T23:55:39.858Z,9.17
2022-12-04T23:58:06.332Z,9.48
